Acton, California
Current Conditions -  °F | °C
As of 3:53 AM on Thursday 29 Jan 2015 (Local Time) from KPMD Reporting Station
Clear Clear  
Wind Chill: 45°   Ceiling: Unl
Heat Index: 48°   Visibility: 10mi
Dew Point: 46°   Wind: 6mph
Humidity: 93%   Direction: 310°NW
Pressure: 30.16"   Gusts: NA
Location:  34.47°N, 118.2°W
Report Text: KPMD 291153Z AUTO 31005KT 10SM CLR 09/08 A3016 RMK AO2 SLP206 T00890078 10106 20083 56009
Loading
Personal Weather Stations






























Interactive Weather Map New forecast layout! Learn more

10-Day Weather Forecast

Advertisements
Track Severe Weather on mobile